createdAt,value
2023-09-12T00:00:51.762Z,29.63
2023-09-12T00:01:54.027Z,29.33
2023-09-12T00:02:56.094Z,31.80
2023-09-12T00:04:03.288Z,30.87
2023-09-12T00:05:06.265Z,29.98
2023-09-12T00:06:08.747Z,31.05
2023-09-12T00:07:11.119Z,32.75
2023-09-12T00:08:13.225Z,32.13
2023-09-12T00:09:15.133Z,33.20
2023-09-12T00:10:16.967Z,32.70
2023-09-12T00:11:20.069Z,32.67
2023-09-12T00:12:28.175Z,32.35
2023-09-12T00:13:32.823Z,32.53
2023-09-12T00:14:34.711Z,31.33
2023-09-12T00:15:36.621Z,33.47
2023-09-12T00:16:38.566Z,32.55
2023-09-12T00:17:40.538Z,32.50
2023-09-12T00:18:43.888Z,30.25
2023-09-12T00:19:45.894Z,29.80
2023-09-12T00:20:48.012Z,29.90
2023-09-12T00:21:49.791Z,27.55
2023-09-12T00:22:52.033Z,28.23
2023-09-12T00:23:54.298Z,28.73
2023-09-12T00:24:56.482Z,28.80
2023-09-12T00:26:00.543Z,28.83
2023-09-12T00:27:02.389Z,27.85
2023-09-12T00:28:06.029Z,29.15
2023-09-12T00:29:08.207Z,27.50
2023-09-12T00:30:11.770Z,28.00
2023-09-12T00:31:14.620Z,27.83
2023-09-12T00:32:16.484Z,28.38
2023-09-12T00:33:20.912Z,27.27
2023-09-12T00:34:24.987Z,27.33
2023-09-12T00:35:28.231Z,29.27
2023-09-12T00:36:31.025Z,29.88
2023-09-12T00:37:34.134Z,30.10
2023-09-12T00:38:37.529Z,29.27
2023-09-12T00:39:39.582Z,29.05
2023-09-12T00:40:41.760Z,27.10
2023-09-12T00:41:45.186Z,25.67
2023-09-12T00:42:47.302Z,26.90
2023-09-12T00:43:49.853Z,26.20
2023-09-12T00:44:51.901Z,30.02
2023-09-12T00:45:55.298Z,27.17
2023-09-12T00:46:59.222Z,28.17
2023-09-12T00:48:05.559Z,29.15
2023-09-12T00:49:09.241Z,29.45
2023-09-12T00:50:14.440Z,29.65
2023-09-12T00:51:18.432Z,29.10
2023-09-12T00:52:23.005Z,28.52
2023-09-12T00:53:26.480Z,29.80
2023-09-12T00:54:28.447Z,28.20
2023-09-12T00:55:36.458Z,29.95
2023-09-12T00:56:41.886Z,29.80
2023-09-12T00:57:46.522Z,29.70
2023-09-12T00:58:52.733Z,28.95
2023-09-12T00:59:57.194Z,30.75
2023-09-12T01:01:00.782Z,30.33
2023-09-12T01:02:04.568Z,28.90
2023-09-12T01:03:06.801Z,28.77
2023-09-12T01:04:20.450Z,30.30
2023-09-12T01:05:30.305Z,28.10
2023-09-12T01:06:34.717Z,28.00
2023-09-12T01:07:38.721Z,27.43
2023-09-12T01:08:44.357Z,26.10
2023-09-12T01:09:47.875Z,24.33
2023-09-12T01:10:54.138Z,27.60
2023-09-12T01:11:56.653Z,26.50
2023-09-12T01:12:59.987Z,26.25
2023-09-12T01:14:01.788Z,27.27
2023-09-12T01:15:14.571Z,25.75
2023-09-12T01:16:16.688Z,26.88
2023-09-12T01:17:19.011Z,26.50
2023-09-12T01:18:21.507Z,27.10
2023-09-12T01:19:25.074Z,28.02
2023-09-12T01:20:30.341Z,27.25
2023-09-12T01:22:22.830Z,28.55
2023-09-12T01:24:06.660Z,27.08
2023-09-12T01:25:42.528Z,26.80
2023-09-12T01:27:00.604Z,26.23
2023-09-12T01:28:07.123Z,27.92
2023-09-12T01:29:10.446Z,27.50
2023-09-12T01:30:13.569Z,30.75
2023-09-12T01:31:17.708Z,30.00
2023-09-12T01:32:21.020Z,27.77
2023-09-12T01:33:23.804Z,28.50
2023-09-12T01:34:25.708Z,29.20
2023-09-12T01:35:27.470Z,29.92
2023-09-12T01:36:29.649Z,29.92
2023-09-12T01:37:32.607Z,29.65
2023-09-12T01:38:35.245Z,29.45
2023-09-12T01:39:37.236Z,28.52
2023-09-12T01:40:59.962Z,29.38
2023-09-12T01:42:02.817Z,28.90
2023-09-12T01:43:06.451Z,31.10
2023-09-12T01:44:11.660Z,30.63
2023-09-12T01:45:18.556Z,31.65
2023-09-12T01:46:22.915Z,32.03
2023-09-12T01:47:27.352Z,28.45
2023-09-12T01:48:34.859Z,31.23
2023-09-12T01:49:38.410Z,29.85
2023-09-12T01:50:40.329Z,28.05
2023-09-12T01:51:42.312Z,27.80
2023-09-12T01:52:44.877Z,29.60
2023-09-12T01:53:48.319Z,29.50
2023-09-12T01:54:51.778Z,28.60
2023-09-12T01:55:55.196Z,27.80
2023-09-12T01:56:58.968Z,26.42
2023-09-12T01:58:01.028Z,27.00
2023-09-12T01:59:04.855Z,28.00
2023-09-12T02:00:07.668Z,26.23
2023-09-12T02:01:10.973Z,26.50
2023-09-12T02:02:12.874Z,27.83
2023-09-12T02:03:14.807Z,27.90
2023-09-12T02:04:16.670Z,29.55
2023-09-12T02:05:23.719Z,27.40
2023-09-12T02:06:26.247Z,26.33
2023-09-12T02:07:33.829Z,27.73
2023-09-12T02:08:35.556Z,29.50
2023-09-12T02:09:37.397Z,28.05
2023-09-12T02:10:40.789Z,28.30
2023-09-12T02:11:43.935Z,30.30
2023-09-12T02:12:45.775Z,31.75
2023-09-12T02:13:47.733Z,36.07
2023-09-12T02:14:49.847Z,30.38
2023-09-12T02:15:51.840Z,30.00
2023-09-12T02:16:53.847Z,30.15
2023-09-12T02:17:56.389Z,31.80
2023-09-12T02:18:58.259Z,32.00
2023-09-12T02:20:00.212Z,29.83
2023-09-12T02:21:02.193Z,30.95
2023-09-12T02:22:04.365Z,35.17
2023-09-12T02:23:06.652Z,33.60
2023-09-12T02:24:08.907Z,28.40
2023-09-12T02:25:12.032Z,27.85
2023-09-12T02:26:13.920Z,26.65
2023-09-12T02:27:15.910Z,27.73
2023-09-12T02:28:18.433Z,28.50
2023-09-12T02:29:20.217Z,30.92
2023-09-12T02:30:22.033Z,32.45
2023-09-12T02:31:23.922Z,32.15
2023-09-12T02:32:25.758Z,34.25
2023-09-12T02:33:28.144Z,34.67
2023-09-12T02:34:30.384Z,29.87
2023-09-12T02:35:32.335Z,30.67
2023-09-12T02:36:34.171Z,30.20
2023-09-12T02:37:36.258Z,30.60
2023-09-12T02:38:41.401Z,31.27
2023-09-12T02:39:43.601Z,28.05
2023-09-12T02:40:45.491Z,28.50
2023-09-12T02:41:47.612Z,40.03
2023-09-12T02:42:49.383Z,41.25
2023-09-12T02:43:51.198Z,35.08
2023-09-12T02:44:53.769Z,38.30
2023-09-12T02:45:55.818Z,42.17
2023-09-12T02:46:57.827Z,43.72
2023-09-12T02:47:59.768Z,43.85
2023-09-12T02:49:01.633Z,46.88
2023-09-12T02:50:04.243Z,48.63
2023-09-12T02:51:06.054Z,58.53
2023-09-12T02:52:08.381Z,52.45
2023-09-12T02:53:10.438Z,37.95
2023-09-12T02:54:12.453Z,43.58
2023-09-12T02:55:14.850Z,37.53
2023-09-12T02:56:16.607Z,33.90
2023-09-12T02:57:18.464Z,41.72
2023-09-12T02:58:20.359Z,36.53
2023-09-12T02:59:22.169Z,38.47
2023-09-12T03:00:24.155Z,48.05
2023-09-12T03:01:29.027Z,44.78
2023-09-12T03:02:32.171Z,46.55
2023-09-12T03:03:34.617Z,35.60
2023-09-12T03:04:45.511Z,34.42
2023-09-12T03:05:47.500Z,31.17
2023-09-12T03:06:49.750Z,30.45
2023-09-12T03:07:51.805Z,31.73
2023-09-12T03:08:53.609Z,29.73
2023-09-12T03:09:55.617Z,30.23
2023-09-12T03:10:58.090Z,36.50
2023-09-12T03:12:03.396Z,38.50
2023-09-12T03:13:06.009Z,43.05
2023-09-12T03:14:08.732Z,34.92
2023-09-12T03:15:11.221Z,28.73
2023-09-12T03:16:14.636Z,30.57
2023-09-12T03:17:16.893Z,31.45
2023-09-12T03:18:18.976Z,34.28
2023-09-12T03:19:20.816Z,30.20
2023-09-12T03:20:22.646Z,28.35
2023-09-12T03:21:24.625Z,28.90
2023-09-12T03:22:26.586Z,41.17
2023-09-12T03:23:28.838Z,43.35
2023-09-12T03:24:30.909Z,34.13
2023-09-12T03:25:37.843Z,29.10
2023-09-12T03:26:39.611Z,29.03
2023-09-12T03:27:41.440Z,28.30
2023-09-12T03:28:43.706Z,29.08
2023-09-12T03:29:48.949Z,32.92
2023-09-12T03:30:51.013Z,49.70
2023-09-12T03:31:52.886Z,46.05
2023-09-12T03:32:55.898Z,40.30
2023-09-12T03:33:58.191Z,43.30
2023-09-12T03:35:00.207Z,35.92
2023-09-12T03:36:03.466Z,33.05
2023-09-12T03:37:05.342Z,31.53
2023-09-12T03:38:08.200Z,31.63
2023-09-12T03:39:10.138Z,30.67
2023-09-12T03:40:12.766Z,30.25
2023-09-12T03:41:14.737Z,29.05
2023-09-12T03:42:16.924Z,27.83
2023-09-12T03:43:18.774Z,28.30
2023-09-12T03:44:20.585Z,26.35
2023-09-12T03:45:22.462Z,28.33
2023-09-12T03:46:24.433Z,27.25
2023-09-12T03:47:26.233Z,28.13
2023-09-12T03:48:28.136Z,29.35
2023-09-12T03:49:30.197Z,27.77
2023-09-12T03:50:32.724Z,30.17
2023-09-12T03:51:36.235Z,31.92
2023-09-12T03:52:38.186Z,33.50
2023-09-12T03:53:40.156Z,28.88
2023-09-12T03:54:42.599Z,29.40
2023-09-12T03:55:44.907Z,30.42
2023-09-12T03:56:47.123Z,29.90
2023-09-12T03:57:49.701Z,30.90
2023-09-12T03:58:51.572Z,30.88
2023-09-12T03:59:54.758Z,31.05
2023-09-12T04:02:14.443Z,31.40
2023-09-12T04:03:17.694Z,28.90
2023-09-12T04:04:21.080Z,30.23
2023-09-12T04:05:26.702Z,30.65
2023-09-12T04:06:28.609Z,29.45
2023-09-12T04:07:30.429Z,30.50
2023-09-12T04:08:33.710Z,29.43
2023-09-12T04:09:35.947Z,31.75
2023-09-12T04:10:37.767Z,29.35
2023-09-12T04:11:47.037Z,31.65
2023-09-12T04:12:49.700Z,30.90
2023-09-12T04:13:51.614Z,29.70
2023-09-12T04:14:53.950Z,28.30
2023-09-12T04:15:56.156Z,28.20
2023-09-12T04:16:58.826Z,30.17
2023-09-12T04:18:02.537Z,31.00
2023-09-12T04:19:05.360Z,30.53
2023-09-12T04:20:08.236Z,33.95
2023-09-12T04:21:10.203Z,32.60
2023-09-12T04:22:12.582Z,32.15
2023-09-12T04:23:14.955Z,31.55
2023-09-12T04:24:18.660Z,31.63
2023-09-12T04:25:21.194Z,30.75
2023-09-12T04:26:23.154Z,28.88
2023-09-12T04:27:25.157Z,33.60
2023-09-12T04:28:27.897Z,30.95
2023-09-12T04:29:29.889Z,32.67
2023-09-12T04:30:31.765Z,31.38
2023-09-12T04:31:34.027Z,29.38
2023-09-12T04:32:35.998Z,30.38
2023-09-12T04:33:37.830Z,30.20
2023-09-12T04:34:43.112Z,29.13
2023-09-12T04:35:44.979Z,28.15
2023-09-12T04:36:46.809Z,28.88
2023-09-12T04:37:49.412Z,28.55
2023-09-12T04:38:51.469Z,30.77
2023-09-12T04:39:53.420Z,28.70
2023-09-12T04:41:04.102Z,30.35
2023-09-12T04:42:06.201Z,29.63
2023-09-12T04:43:08.537Z,29.63
2023-09-12T04:44:11.351Z,30.30
2023-09-12T04:45:13.337Z,31.58
2023-09-12T04:46:15.997Z,29.27
2023-09-12T04:47:19.444Z,27.98
2023-09-12T04:48:21.402Z,28.20
2023-09-12T04:49:23.864Z,27.67
2023-09-12T04:50:25.763Z,27.40
2023-09-12T04:51:28.405Z,27.42
2023-09-12T04:52:33.406Z,28.63
2023-09-12T04:53:36.204Z,29.27
2023-09-12T04:54:41.391Z,35.65
2023-09-12T04:55:43.212Z,36.67
2023-09-12T04:56:45.088Z,38.28
2023-09-12T04:57:47.470Z,34.63
2023-09-12T04:58:49.461Z,34.20
2023-09-12T04:59:53.747Z,37.90
2023-09-12T05:00:57.074Z,39.83
2023-09-12T05:01:59.072Z,37.15
2023-09-12T05:03:03.400Z,35.53
2023-09-12T05:04:05.420Z,32.97
2023-09-12T05:05:07.773Z,33.33
2023-09-12T05:06:10.257Z,33.10
2023-09-12T05:07:12.652Z,34.65
2023-09-12T05:08:14.440Z,32.85
2023-09-12T05:09:16.697Z,32.05
2023-09-12T05:10:20.084Z,32.63
2023-09-12T05:11:26.015Z,33.27
2023-09-12T05:12:27.897Z,32.47
2023-09-12T05:13:31.060Z,31.65
2023-09-12T05:14:32.885Z,30.73
2023-09-12T05:15:34.891Z,29.70
2023-09-12T05:16:37.094Z,29.52
2023-09-12T05:17:39.103Z,28.70
2023-09-12T05:18:41.226Z,27.13
2023-09-12T05:19:44.024Z,27.42
2023-09-12T05:20:46.041Z,31.52
2023-09-12T05:21:47.925Z,32.73
2023-09-12T05:22:50.453Z,30.77
2023-09-12T05:23:52.428Z,33.63
2023-09-12T05:24:54.386Z,33.38
2023-09-12T05:25:56.369Z,32.83
2023-09-12T05:26:58.253Z,31.20
2023-09-12T05:28:02.917Z,27.00
2023-09-12T05:29:06.696Z,25.90
2023-09-12T05:30:08.916Z,26.58
2023-09-12T05:31:11.104Z,27.80
2023-09-12T05:32:13.217Z,27.40
2023-09-12T05:33:15.114Z,27.35
2023-09-12T05:34:17.268Z,27.25
2023-09-12T05:35:22.573Z,27.25
2023-09-12T05:36:26.256Z,28.08
2023-09-12T05:37:28.452Z,26.85
2023-09-12T05:38:30.724Z,29.00
2023-09-12T05:39:32.651Z,29.65
2023-09-12T05:40:34.535Z,27.42
2023-09-12T05:41:37.519Z,25.55
2023-09-12T05:42:39.409Z,26.63
2023-09-12T05:43:41.528Z,26.73
2023-09-12T05:44:46.150Z,27.75
2023-09-12T05:45:49.611Z,29.52
2023-09-12T05:46:51.535Z,28.58
2023-09-12T05:47:53.469Z,30.77
2023-09-12T05:48:55.603Z,32.35
2023-09-12T05:49:57.628Z,32.30
2023-09-12T05:50:59.622Z,31.27
2023-09-12T05:52:01.458Z,30.17
2023-09-12T05:53:03.823Z,31.23
2023-09-12T05:54:05.922Z,33.40
2023-09-12T05:55:08.149Z,30.70
2023-09-12T05:56:10.389Z,32.92
2023-09-12T05:57:13.050Z,32.38
2023-09-12T05:58:15.537Z,32.85
2023-09-12T05:59:18.150Z,29.77
2023-09-12T06:00:20.305Z,31.25
2023-09-12T06:01:22.299Z,29.88
2023-09-12T06:02:24.146Z,29.83
2023-09-12T06:03:26.038Z,30.03
2023-09-12T06:04:28.107Z,31.50
2023-09-12T06:05:31.214Z,31.13
2023-09-12T06:06:33.309Z,31.90
2023-09-12T06:07:35.242Z,29.60
2023-09-12T06:08:37.032Z,30.98
2023-09-12T06:09:39.038Z,30.85
2023-09-12T06:10:40.936Z,28.25
2023-09-12T06:11:42.721Z,30.27
2023-09-12T06:12:44.732Z,30.08
2023-09-12T06:13:46.524Z,28.37
2023-09-12T06:14:48.321Z,29.10
2023-09-12T06:15:50.086Z,27.30
2023-09-12T06:16:52.111Z,27.90
2023-09-12T06:17:55.379Z,28.88
2023-09-12T06:18:57.728Z,29.02
2023-09-12T06:19:59.863Z,29.13
2023-09-12T06:21:07.412Z,29.48
2023-09-12T06:22:09.498Z,29.33
2023-09-12T06:23:11.817Z,29.83
2023-09-12T06:24:21.184Z,27.73
2023-09-12T06:25:23.094Z,27.48
2023-09-12T06:26:26.334Z,25.90
2023-09-12T06:27:28.368Z,24.58
2023-09-12T06:28:32.320Z,26.40
2023-09-12T06:29:34.158Z,28.15
2023-09-12T06:30:36.190Z,27.67
2023-09-12T06:31:42.441Z,28.52
2023-09-12T06:32:44.745Z,26.90
2023-09-12T06:33:46.785Z,28.75
2023-09-12T06:34:49.380Z,28.33
2023-09-12T06:35:53.751Z,29.27
2023-09-12T06:36:55.639Z,28.30
2023-09-12T06:37:58.027Z,28.75
2023-09-12T06:39:00.948Z,30.05
2023-09-12T06:40:03.211Z,29.30
2023-09-12T06:41:05.348Z,27.75
2023-09-12T06:42:07.623Z,28.45
2023-09-12T06:43:09.517Z,28.23
2023-09-12T06:44:11.898Z,27.77
2023-09-12T06:45:13.946Z,28.93
2023-09-12T06:46:21.029Z,30.77
2023-09-12T06:47:23.090Z,29.95
2023-09-12T06:48:25.921Z,28.90
2023-09-12T06:49:27.854Z,30.75
2023-09-12T06:50:33.860Z,30.20
2023-09-12T06:51:38.654Z,29.60
2023-09-12T06:52:40.978Z,29.52
2023-09-12T06:53:43.266Z,31.10
2023-09-12T06:54:45.355Z,31.35
2023-09-12T06:55:47.547Z,30.73
2023-09-12T06:56:49.795Z,32.22
2023-09-12T06:57:53.026Z,30.33
2023-09-12T06:58:56.262Z,30.60
2023-09-12T06:59:58.181Z,30.55
2023-09-12T07:01:07.144Z,28.92
2023-09-12T07:02:09.720Z,29.75
2023-09-12T07:03:14.855Z,31.35
2023-09-12T07:04:18.517Z,29.92
2023-09-12T07:05:20.316Z,32.42
2023-09-12T07:06:23.143Z,29.57
2023-09-12T07:07:24.991Z,29.20
2023-09-12T07:08:29.636Z,28.83
2023-09-12T07:09:32.351Z,28.02
2023-09-12T07:10:34.228Z,26.88
2023-09-12T07:11:36.439Z,29.25
2023-09-12T07:12:38.334Z,28.38
2023-09-12T07:13:40.453Z,29.50
2023-09-12T07:14:42.805Z,28.58
2023-09-12T07:15:44.797Z,29.17
2023-09-12T07:16:46.650Z,30.10
2023-09-12T07:17:48.707Z,29.60
2023-09-12T07:18:51.512Z,27.45
2023-09-12T07:19:54.172Z,30.13
2023-09-12T07:21:00.502Z,27.33
2023-09-12T07:22:04.796Z,28.63
2023-09-12T07:23:06.634Z,26.10
2023-09-12T07:24:08.693Z,27.90
2023-09-12T07:25:13.258Z,27.73
2023-09-12T07:26:15.954Z,27.83
2023-09-12T07:27:17.794Z,30.70
2023-09-12T07:28:20.794Z,30.60
2023-09-12T07:29:22.648Z,30.38
2023-09-12T07:30:24.870Z,30.98
2023-09-12T07:31:26.879Z,32.80
2023-09-12T07:32:29.751Z,32.20
2023-09-12T07:33:31.641Z,32.15
2023-09-12T07:34:34.217Z,32.05
2023-09-12T07:35:35.981Z,33.90
2023-09-12T07:36:38.055Z,33.08
2023-09-12T07:37:39.936Z,31.70
2023-09-12T07:38:43.099Z,32.22
2023-09-12T07:39:45.267Z,31.17
2023-09-12T07:40:47.208Z,29.48
2023-09-12T07:41:49.001Z,29.23
2023-09-12T07:42:50.902Z,29.45
2023-09-12T07:43:52.927Z,31.13
2023-09-12T07:44:54.792Z,29.42
2023-09-12T07:45:59.832Z,31.52
2023-09-12T07:47:02.605Z,31.40
2023-09-12T07:48:08.330Z,31.30
2023-09-12T07:49:10.307Z,30.05
2023-09-12T07:50:12.154Z,30.52
2023-09-12T07:51:19.171Z,30.30
2023-09-12T07:52:21.368Z,30.50
2023-09-12T07:53:23.814Z,30.00
2023-09-12T07:54:25.738Z,30.25
2023-09-12T07:55:31.336Z,31.50
2023-09-12T07:56:33.185Z,33.20
2023-09-12T07:57:35.565Z,33.20
2023-09-12T07:58:37.452Z,31.23
2023-09-12T07:59:39.302Z,33.78
2023-09-12T08:00:41.605Z,32.08
2023-09-12T08:01:43.701Z,35.25
2023-09-12T08:02:45.576Z,34.10
2023-09-12T08:03:48.555Z,32.20
2023-09-12T08:04:52.118Z,32.83
2023-09-12T08:05:58.707Z,32.72
2023-09-12T08:07:01.859Z,31.52
2023-09-12T08:08:04.466Z,31.15
2023-09-12T08:09:06.300Z,32.03
2023-09-12T08:10:08.424Z,31.73
2023-09-12T08:11:11.404Z,34.15
2023-09-12T08:12:13.538Z,32.92
2023-09-12T08:13:15.464Z,34.33
2023-09-12T08:14:17.745Z,32.50
2023-09-12T08:15:20.328Z,35.33
2023-09-12T08:16:22.328Z,36.35
2023-09-12T08:17:24.732Z,39.03
2023-09-12T08:18:30.455Z,35.58
2023-09-12T08:19:32.471Z,36.13
2023-09-12T08:20:34.279Z,36.78
2023-09-12T08:21:36.090Z,35.05
2023-09-12T08:22:39.176Z,37.83
2023-09-12T08:23:41.495Z,38.53
2023-09-12T08:24:43.714Z,36.67
2023-09-12T08:25:45.617Z,35.05
2023-09-12T08:26:47.345Z,35.63
2023-09-12T08:27:49.332Z,37.63
2023-09-12T08:28:51.231Z,38.33
2023-09-12T08:29:53.075Z,38.47
2023-09-12T08:30:54.945Z,38.08
2023-09-12T08:31:57.145Z,38.50
2023-09-12T08:32:59.118Z,37.80
2023-09-12T08:34:01.138Z,38.75
2023-09-12T08:35:04.942Z,37.45
2023-09-12T08:36:07.029Z,35.15
2023-09-12T08:37:08.732Z,38.58
2023-09-12T08:38:11.417Z,38.53
2023-09-12T08:39:15.674Z,37.58
2023-09-12T08:40:17.696Z,38.13
2023-09-12T08:41:19.658Z,38.17
2023-09-12T08:42:21.545Z,36.80
2023-09-12T08:43:23.294Z,37.55
2023-09-12T08:44:25.174Z,38.47
2023-09-12T08:45:27.461Z,36.55
2023-09-12T08:46:29.330Z,36.08
2023-09-12T08:47:32.557Z,35.40
2023-09-12T08:48:35.578Z,37.30
2023-09-12T08:49:38.735Z,35.78
2023-09-12T08:50:40.966Z,37.10
2023-09-12T08:51:43.456Z,36.97
2023-09-12T08:53:03.715Z,35.90
2023-09-12T08:54:10.196Z,35.90
2023-09-12T08:55:12.941Z,37.08
2023-09-12T08:56:14.907Z,35.67
2023-09-12T08:57:17.689Z,35.90
2023-09-12T08:58:20.435Z,33.85
2023-09-12T08:59:22.582Z,33.58
2023-09-12T09:00:26.010Z,33.97
2023-09-12T09:01:31.076Z,33.03
2023-09-12T09:02:40.836Z,35.28
2023-09-12T09:03:44.084Z,31.75
2023-09-12T09:04:50.004Z,33.13
2023-09-12T09:05:53.809Z,32.80
2023-09-12T09:06:59.083Z,34.97
2023-09-12T09:08:03.741Z,34.00
2023-09-12T09:09:07.730Z,33.22
2023-09-12T09:10:14.858Z,33.22
2023-09-12T09:11:16.812Z,36.42
2023-09-12T09:12:18.539Z,35.37
2023-09-12T09:13:20.556Z,36.10
2023-09-12T09:14:22.562Z,32.60
2023-09-12T09:15:29.145Z,34.67
2023-09-12T09:16:32.512Z,33.72
2023-09-12T09:17:36.250Z,34.85
2023-09-12T09:18:56.865Z,33.40
2023-09-12T09:19:58.848Z,33.85
2023-09-12T09:21:00.764Z,32.13
2023-09-12T09:22:07.289Z,31.67
2023-09-12T09:23:11.745Z,32.07
2023-09-12T09:24:18.884Z,31.48
2023-09-12T09:25:21.933Z,29.15
2023-09-12T09:26:25.057Z,30.05
2023-09-12T09:27:36.081Z,32.13
2023-09-12T09:28:38.361Z,33.67
2023-09-12T09:29:49.359Z,34.05
2023-09-12T09:30:53.045Z,33.08
2023-09-12T09:31:55.148Z,33.70
2023-09-12T09:32:57.003Z,31.42
2023-09-12T09:34:00.182Z,30.80
2023-09-12T09:35:02.354Z,33.50
2023-09-12T09:36:08.951Z,29.58
2023-09-12T09:37:11.058Z,30.40
2023-09-12T09:38:17.773Z,31.33
2023-09-12T09:39:21.792Z,29.80
2023-09-12T09:40:24.541Z,31.30
2023-09-12T09:41:30.093Z,28.27
2023-09-12T09:42:33.138Z,29.38
2023-09-12T09:43:35.145Z,29.15
2023-09-12T09:44:37.555Z,28.57
2023-09-12T09:45:47.962Z,32.22
2023-09-12T09:46:56.322Z,31.85
2023-09-12T09:48:01.507Z,33.17
2023-09-12T09:49:03.487Z,31.95
2023-09-12T09:50:05.727Z,34.00
2023-09-12T09:51:07.425Z,32.35
2023-09-12T09:52:09.428Z,31.90
2023-09-12T09:53:11.856Z,32.17
2023-09-12T09:54:15.191Z,30.83
2023-09-12T09:55:17.129Z,27.70
2023-09-12T09:56:19.367Z,32.47
2023-09-12T09:57:21.194Z,31.77
2023-09-12T09:58:24.977Z,32.17
2023-09-12T09:59:28.341Z,30.80
2023-09-12T10:00:30.468Z,31.02
2023-09-12T10:01:33.584Z,30.70
2023-09-12T10:02:37.170Z,31.83
2023-09-12T10:03:39.843Z,30.70
2023-09-12T10:04:46.327Z,32.08
2023-09-12T10:05:52.525Z,30.07
2023-09-12T10:06:56.878Z,30.05
2023-09-12T10:07:59.364Z,28.73
2023-09-12T10:09:01.973Z,28.75
2023-09-12T10:10:05.270Z,31.52
2023-09-12T10:11:07.863Z,33.30
2023-09-12T10:12:10.439Z,30.77
2023-09-12T10:13:13.396Z,30.67
2023-09-12T10:14:19.277Z,28.75
2023-09-12T10:15:24.056Z,27.75
2023-09-12T10:16:32.950Z,29.10
2023-09-12T10:17:38.386Z,27.65
2023-09-12T10:19:04.254Z,30.17
2023-09-12T10:20:14.146Z,25.15
2023-09-12T10:21:23.183Z,25.42
2023-09-12T10:22:44.954Z,27.45
2023-09-12T10:23:47.589Z,23.77
2023-09-12T10:24:50.925Z,27.27
2023-09-12T10:25:53.697Z,27.27
2023-09-12T10:26:56.808Z,28.00
2023-09-12T10:27:59.434Z,26.57
2023-09-12T10:29:03.770Z,26.85
2023-09-12T10:30:06.685Z,26.23
2023-09-12T10:31:12.787Z,26.25
2023-09-12T10:32:15.808Z,27.75
2023-09-12T10:33:18.713Z,25.52
2023-09-12T10:34:23.146Z,26.60
2023-09-12T10:35:25.794Z,23.23
2023-09-12T10:36:29.324Z,25.95
2023-09-12T10:37:36.224Z,26.63
2023-09-12T10:38:47.977Z,28.17
2023-09-12T10:39:50.399Z,27.10
2023-09-12T10:40:55.856Z,26.25
2023-09-12T10:41:59.519Z,25.13
2023-09-12T10:43:04.482Z,25.90
2023-09-12T10:44:16.802Z,25.58
2023-09-12T10:45:19.353Z,24.85
2023-09-12T10:46:22.649Z,22.45
2023-09-12T10:47:24.953Z,24.48
2023-09-12T10:48:26.780Z,23.10
2023-09-12T10:49:29.553Z,23.63
2023-09-12T10:50:31.587Z,22.97
2023-09-12T10:51:33.834Z,21.10
2023-09-12T10:52:40.762Z,23.02
2023-09-12T10:53:51.521Z,23.75
2023-09-12T10:54:53.884Z,21.77
2023-09-12T10:56:33.435Z,19.38
2023-09-12T10:57:36.699Z,22.92
2023-09-12T10:59:07.565Z,22.45
2023-09-12T11:00:15.090Z,21.90
2023-09-12T11:01:25.275Z,21.37
2023-09-12T11:02:31.122Z,23.40
2023-09-12T11:03:36.109Z,23.17
2023-09-12T11:04:39.038Z,22.63
2023-09-12T11:05:56.275Z,20.17
2023-09-12T11:06:59.559Z,20.90
2023-09-12T11:08:02.637Z,19.25
2023-09-12T11:09:24.262Z,19.98
2023-09-12T11:10:28.048Z,19.05
2023-09-12T11:11:30.032Z,20.50
2023-09-12T11:12:37.520Z,20.23
2023-09-12T11:13:43.487Z,25.23
2023-09-12T11:15:18.411Z,22.45
2023-09-12T11:16:21.425Z,21.30
2023-09-12T11:17:24.208Z,20.83
2023-09-12T11:18:25.950Z,20.98
2023-09-12T11:19:28.084Z,24.35
2023-09-12T11:20:54.444Z,20.30
2023-09-12T11:21:57.414Z,18.30
2023-09-12T11:23:12.668Z,19.58
2023-09-12T11:24:16.122Z,20.88
2023-09-12T11:25:36.911Z,20.83
2023-09-12T11:27:01.667Z,18.00
2023-09-12T11:28:08.080Z,17.83
2023-09-12T11:29:16.742Z,19.33
2023-09-12T11:30:27.629Z,18.60
2023-09-12T11:31:30.312Z,18.70
2023-09-12T11:32:36.001Z,20.10
2023-09-12T11:33:41.488Z,20.15
2023-09-12T11:34:45.678Z,18.95
2023-09-12T11:35:47.533Z,20.30
2023-09-12T11:36:49.609Z,18.70
2023-09-12T11:37:58.687Z,19.33
2023-09-12T11:39:23.123Z,19.42
2023-09-12T11:40:33.472Z,21.33
2023-09-12T11:41:41.331Z,19.00
2023-09-12T11:42:44.376Z,18.60
2023-09-12T11:43:46.775Z,19.23
2023-09-12T11:44:50.387Z,21.55
2023-09-12T11:45:53.173Z,20.77
2023-09-12T11:46:56.230Z,20.57
2023-09-12T11:47:58.247Z,18.67
2023-09-12T11:49:02.757Z,18.73
2023-09-12T11:50:05.118Z,19.17
2023-09-12T11:51:09.156Z,16.42
2023-09-12T11:52:13.822Z,19.17
2023-09-12T11:53:18.184Z,18.75
2023-09-12T11:54:30.491Z,20.30
2023-09-12T11:55:37.855Z,21.20
2023-09-12T11:56:40.336Z,16.52
2023-09-12T11:57:42.188Z,16.80
2023-09-12T11:58:46.894Z,19.93
2023-09-12T11:59:50.170Z,19.88
2023-09-12T12:00:54.680Z,20.60
2023-09-12T12:01:59.824Z,19.50
2023-09-12T12:03:01.910Z,21.75
2023-09-12T12:04:03.945Z,19.73
2023-09-12T12:05:06.209Z,19.55
2023-09-12T12:06:08.233Z,18.25
2023-09-12T12:07:11.397Z,18.38
2023-09-12T12:08:30.385Z,17.17
2023-09-12T12:09:33.784Z,18.25
2023-09-12T12:10:36.262Z,17.67
2023-09-12T12:11:38.070Z,20.08
2023-09-12T12:12:39.895Z,20.48
2023-09-12T12:13:42.390Z,21.27
2023-09-12T12:14:45.987Z,18.65
2023-09-12T12:15:47.872Z,20.50
2023-09-12T12:16:49.902Z,21.00
2023-09-12T12:17:56.160Z,19.15
2023-09-12T12:18:59.131Z,16.90
2023-09-12T12:20:01.679Z,15.60
2023-09-12T12:21:04.911Z,14.85
2023-09-12T12:22:09.161Z,15.77
2023-09-12T12:23:12.148Z,14.73
2023-09-12T12:24:16.143Z,18.58
2023-09-12T12:25:18.179Z,17.92
2023-09-12T12:26:20.527Z,18.42
2023-09-12T12:27:29.371Z,17.90
2023-09-12T12:28:34.213Z,16.98
2023-09-12T12:29:38.387Z,15.13
2023-09-12T12:30:40.650Z,18.55
2023-09-12T12:31:43.017Z,19.38
2023-09-12T12:32:51.591Z,17.70
2023-09-12T12:34:30.893Z,15.18
2023-09-12T12:35:50.709Z,15.35
2023-09-12T12:36:56.516Z,15.48
2023-09-12T12:38:05.865Z,18.33
2023-09-12T12:39:11.934Z,17.27
2023-09-12T12:40:14.806Z,15.02
2023-09-12T12:41:24.253Z,15.13
2023-09-12T12:42:27.305Z,17.00
2023-09-12T12:43:30.120Z,14.38
2023-09-12T12:44:41.543Z,12.85
2023-09-12T12:45:54.491Z,13.55
2023-09-12T12:46:56.536Z,14.93
2023-09-12T12:48:02.311Z,12.65
2023-09-12T12:49:06.647Z,16.80
2023-09-12T12:50:12.880Z,11.52
2023-09-12T12:51:18.089Z,12.15
2023-09-12T12:52:31.769Z,13.37
2023-09-12T12:54:20.566Z,11.05
2023-09-12T12:55:27.283Z,9.05
2023-09-12T12:56:32.319Z,7.32
2023-09-12T12:57:40.926Z,8.10
2023-09-12T12:59:14.525Z,7.55
2023-09-12T13:00:20.350Z,7.13
2023-09-12T13:01:29.728Z,10.27
2023-09-12T13:02:32.779Z,11.45
2023-09-12T13:03:34.746Z,9.45
2023-09-12T13:05:14.851Z,11.00
2023-09-12T13:06:20.022Z,12.38
2023-09-12T13:07:21.924Z,11.73
2023-09-12T13:08:23.760Z,6.75
2023-09-12T13:09:26.460Z,12.85
2023-09-12T13:10:28.307Z,12.50
2023-09-12T13:11:30.275Z,12.50
2023-09-12T13:12:32.289Z,13.57
2023-09-12T13:13:34.122Z,11.90
2023-09-12T13:14:35.980Z,13.25
2023-09-12T13:15:37.801Z,12.43
2023-09-12T13:16:43.457Z,12.60
2023-09-12T13:17:45.775Z,12.75
2023-09-12T13:18:48.048Z,9.52
2023-09-12T13:19:50.153Z,11.27
2023-09-12T13:20:51.928Z,10.48
2023-09-12T13:21:53.857Z,10.13
2023-09-12T13:22:55.720Z,9.48
2023-09-12T13:23:58.529Z,8.90
2023-09-12T13:25:01.241Z,8.43
2023-09-12T13:26:04.126Z,8.20
2023-09-12T13:27:06.017Z,9.80
2023-09-12T13:28:07.866Z,7.68
2023-09-12T13:29:09.944Z,7.97
2023-09-12T13:30:12.254Z,9.07
2023-09-12T13:31:14.197Z,7.57
2023-09-12T13:32:17.910Z,12.93
2023-09-12T13:33:19.954Z,9.10
2023-09-12T13:34:21.882Z,10.13
2023-09-12T13:35:31.250Z,9.98
2023-09-12T13:36:33.313Z,11.17
2023-09-12T13:37:36.361Z,9.35
2023-09-12T13:38:38.163Z,8.63
2023-09-12T13:39:40.185Z,6.70
2023-09-12T13:40:43.105Z,5.80
2023-09-12T13:41:46.045Z,6.45
2023-09-12T13:42:47.786Z,5.45
2023-09-12T13:43:50.222Z,6.30
2023-09-12T13:44:52.110Z,5.93
2023-09-12T13:45:53.889Z,5.40
2023-09-12T13:46:55.700Z,8.73
2023-09-12T13:47:58.629Z,6.57